Time;durP1;ratioP1;P1;durP2;ratioP2;P2;SDS_P1;SDS_P2;PMS_P1;PMS_P2;Temp;Humidity;BMP_temperature;BMP_pressure;BME280_temperature;BME280_humidity;BME280_pressure;Samples;Min_cycle;Max_cycle;Signal;HPM_P1;HPM_P2
2020/12/10 06:02:32;;;;;;;;;;;;;;;;;;5131847;27;20436;-59
2020/12/10 06:05:01;;;;;;;23.38;3.55;;;;;;;;;;5095934;28;19919;-59
2020/12/10 06:07:27;;;;;;;19.42;2.92;;;;;;;;;;5085487;28;20073;-59
2020/12/10 06:09:54;;;;;;;28.88;2.88;;;;;;;;;;5085455;28;20396;-59
2020/12/10 06:12:24;;;;;;;27.73;3.38;;;;;;;;;;5089944;28;20025;-59
2020/12/10 06:14:52;;;;;;;11.75;1.30;;;;;;;;;;5087117;28;20028;-58
2020/12/10 06:17:18;;;;;;;16.58;1.80;;;;;;;;;;5086662;28;20089;-60
2020/12/10 06:19:44;;;;;;;18.30;1.60;;;;;;;;;;5074883;28;20217;-59
2020/12/10 06:22:31;;;;;;;20.20;2.80;;;;;;;;;;5077908;28;20025;-59
2020/12/10 06:24:58;;;;;;;22.02;2.08;;;;;;;;;;5071293;28;20035;-59
2020/12/10 06:27:28;;;;;;;23.67;2.13;;;;;;;;;;5090668;28;20062;-59
2020/12/10 06:30:09;;;;;;;27.58;2.38;;;;;;;;;;5087023;28;20133;-59
2020/12/10 06:32:43;;;;;;;27.17;2.92;;;;;;;;;;5086991;28;20040;-60
2020/12/10 06:35:29;;;;;;;21.58;3.00;;;;;;;;;;5087153;28;20253;-59
2020/12/10 06:37:55;;;;;;;20.33;2.75;;;;;;;;;;5086597;28;20456;-59
2020/12/10 06:40:29;;;;;;;21.88;2.33;;;;;;;;;;5084202;28;20017;-59
2020/12/10 06:42:55;;;;;;;24.08;2.28;;;;;;;;;;5084430;28;20036;-58
2020/12/10 06:45:25;;;;;;;21.25;2.13;;;;;;;;;;5089211;28;20386;-58
2020/12/10 06:47:53;;;;;;;26.77;2.00;;;;;;;;;;5085978;28;20032;-59
2020/12/10 06:50:26;;;;;;;25.13;3.45;;;;;;;;;;5085781;28;20027;-59
2020/12/10 06:53:22;;;;;;;27.50;3.45;;;;;;;;;;5087897;28;20497;-58
2020/12/10 06:58:36;;;;;;;31.67;3.17;;;;;;;;;;5079976;28;20068;-58
2020/12/10 07:01:22;;;;;;;15.90;2.25;;;;;;;;;;5069676;28;20052;-59
2020/12/10 07:03:50;;;;;;;16.80;1.80;;;;;;;;;;5082837;28;20032;-58
2020/12/10 07:06:21;;;;;;;22.23;3.05;;;;;;;;;;5072351;28;20036;-58
2020/12/10 07:09:06;;;;;;;22.50;2.30;;;;;;;;;;5070492;28;20058;-59
2020/12/10 07:11:34;;;;;;;20.63;2.33;;;;;;;;;;5069279;28;20036;-58
2020/12/10 07:14:02;;;;;;;23.15;2.88;;;;;;;;;;5071822;28;20032;-59
2020/12/10 07:16:32;;;;;;;31.83;3.95;;;;;;;;;;5067127;28;20106;-59
2020/12/10 07:18:58;;;;;;;29.15;3.00;;;;;;;;;;5068014;28;20434;-59
2020/12/10 07:21:24;;;;;;;26.73;2.75;;;;;;;;;;5075214;28;20485;-59
2020/12/10 07:23:51;;;;;;;23.58;3.00;;;;;;;;;;5072173;28;20035;-59
2020/12/10 07:26:17;;;;;;;25.42;3.95;;;;;;;;;;5071759;28;20079;-58
2020/12/10 07:28:45;;;;;;;27.25;2.80;;;;;;;;;;5060674;28;20462;-59
2020/12/10 07:31:16;;;;;;;27.38;2.63;;;;;;;;;;5068135;28;20090;-60
2020/12/10 07:33:43;;;;;;;26.42;3.38;;;;;;;;;;5070574;28;20111;-59
2020/12/10 07:36:16;;;;;;;22.65;2.60;;;;;;;;;;5068179;28;20565;-59
2020/12/10 07:38:45;;;;;;;30.00;3.83;;;;;;;;;;5066696;28;20063;-59
2020/12/10 07:41:13;;;;;;;30.42;3.00;;;;;;;;;;5067317;28;20091;-59
2020/12/10 07:43:46;;;;;;;32.42;3.33;;;;;;;;;;5066975;28;20071;-59
2020/12/10 07:46:14;;;;;;;34.03;4.45;;;;;;;;;;5067865;28;20443;-59
2020/12/10 07:48:40;;;;;;;30.58;4.28;;;;;;;;;;5070710;28;20099;-59
2020/12/10 07:51:06;;;;;;;27.23;3.97;;;;;;;;;;5068786;28;20059;-59
2020/12/10 07:53:33;;;;;;;34.38;3.00;;;;;;;;;;5067149;28;20127;-59
2020/12/10 07:56:00;;;;;;;28.50;3.38;;;;;;;;;;5067667;28;20028;-59
2020/12/10 07:59:00;;;;;;;35.80;2.80;;;;;;;;;;5069017;28;20028;-59
2020/12/10 08:01:31;;;;;;;29.20;4.00;;;;;;;;;;4995160;28;20457;-59
2020/12/10 08:04:11;;;;;;;30.42;3.40;;;;;;;;;;5007739;28;20046;-59
2020/12/10 08:06:53;;;;;;;35.35;3.75;;;;;;;;;;5006862;28;20062;-59
2020/12/10 08:09:20;;;;;;;27.88;3.47;;;;;;;;;;5000069;28;20046;-59
2020/12/10 08:11:50;;;;;;;31.08;3.70;;;;;;;;;;4980910;28;20077;-59
2020/12/10 08:14:23;;;;;;;38.20;3.88;;;;;;;;;;4999186;28;20186;-59
2020/12/10 08:16:49;;;;;;;36.30;3.75;;;;;;;;;;4992878;28;20074;-59
2020/12/10 08:19:21;;;;;;;43.47;5.05;;;;;;;;;;5002308;28;20040;-60
2020/12/10 08:21:49;;;;;;;34.50;3.42;;;;;;;;;;5005386;28;20579;-59
2020/12/10 08:24:34;;;;;;;26.30;3.42;;;;;;;;;;5005851;28;20124;-59
2020/12/10 08:27:00;;;;;;;44.97;4.15;;;;;;;;;;5002716;28;20068;-60
2020/12/10 08:29:26;;;;;;;19.85;2.15;;;;;;;;;;5005033;28;20037;-59
2020/12/10 08:32:04;;;;;;;19.02;2.58;;;;;;;;;;4995021;28;20120;-58
2020/12/10 08:34:31;;;;;;;25.60;2.55;;;;;;;;;;4997232;28;20104;-59
2020/12/10 08:37:05;;;;;;;16.40;2.20;;;;;;;;;;5022176;28;20041;-59
2020/12/10 08:39:40;;;;;;;16.45;1.98;;;;;;;;;;5064574;28;20054;-59
2020/12/10 08:42:07;;;;;;;28.38;3.47;;;;;;;;;;5070457;28;20067;-59
2020/12/10 08:44:43;;;;;;;25.67;1.95;;;;;;;;;;5069536;28;20032;-59
2020/12/10 08:47:11;;;;;;;16.63;2.28;;;;;;;;;;5063677;28;20036;-59
2020/12/10 08:49:37;;;;;;;16.10;2.38;;;;;;;;;;5070015;28;20027;-59
2020/12/10 08:52:03;;;;;;;13.07;1.67;;;;;;;;;;5062482;28;20398;-59
2020/12/10 08:54:29;;;;;;;27.60;2.08;;;;;;;;;;5073673;28;20492;-59
2020/12/10 08:57:01;;;;;;;24.98;2.25;;;;;;;;;;5065091;28;20093;-58
2020/12/10 08:59:29;;;;;;;19.35;3.10;;;;;;;;;;5069487;28;20495;-58
2020/12/10 09:01:55;;;;;;;32.22;3.00;;;;;;;;;;5063988;28;20048;-59
2020/12/10 09:04:23;;;;;;;32.67;3.75;;;;;;;;;;5060425;28;20085;-58
2020/12/10 09:06:49;;;;;;;26.60;4.28;;;;;;;;;;5062935;28;20479;-58
2020/12/10 09:09:21;;;;;;;34.65;3.65;;;;;;;;;;5062197;28;20028;-60
2020/12/10 09:11:48;;;;;;;29.27;3.50;;;;;;;;;;5063770;28;20036;-58
2020/12/10 09:14:14;;;;;;;32.15;4.25;;;;;;;;;;5060245;28;20028;-59
2020/12/10 09:16:40;;;;;;;24.00;3.50;;;;;;;;;;5062978;28;20032;-58
2020/12/10 09:19:06;;;;;;;24.65;2.60;;;;;;;;;;5064164;28;20048;-58
2020/12/10 09:21:38;;;;;;;29.73;3.63;;;;;;;;;;5063452;28;20037;-58
2020/12/10 09:24:04;;;;;;;34.60;3.70;;;;;;;;;;5066095;28;20073;-59
2020/12/10 09:26:31;;;;;;;24.52;3.00;;;;;;;;;;5062501;28;20398;-59
2020/12/10 09:29:01;;;;;;;37.45;4.22;;;;;;;;;;5086090;28;20048;-58
2020/12/10 09:31:27;;;;;;;33.33;4.40;;;;;;;;;;5058911;28;20029;-59
2020/12/10 09:33:54;;;;;;;41.55;6.18;;;;;;;;;;5063347;28;20021;-58
2020/12/10 09:36:20;;;;;;;39.65;4.75;;;;;;;;;;5065575;28;20024;-58
2020/12/10 09:38:46;;;;;;;35.05;4.15;;;;;;;;;;5063929;28;20071;-58
2020/12/10 09:41:12;;;;;;;36.90;4.05;;;;;;;;;;5096741;28;20401;-59
2020/12/10 09:43:38;;;;;;;40.58;4.30;;;;;;;;;;5065469;28;20484;-59
2020/12/10 09:46:10;;;;;;;26.77;3.63;;;;;;;;;;5049593;28;20063;-58
2020/12/10 09:48:36;;;;;;;42.38;4.95;;;;;;;;;;5066798;28;20031;-58
2020/12/10 09:51:03;;;;;;;29.50;3.85;;;;;;;;;;5067447;28;20048;-59
2020/12/10 09:53:36;;;;;;;28.95;3.90;;;;;;;;;;5057751;28;20130;-60
2020/12/10 09:56:36;;;;;;;41.60;5.10;;;;;;;;;;5062161;28;20107;-59
2020/12/10 09:58:56;;;;;;;28.15;4.55;;;;;;;;;;5055637;28;20480;-59
2020/12/10 10:01:22;;;;;;;28.30;4.10;;;;;;;;;;5066816;28;20044;-59
2020/12/10 10:03:48;;;;;;;23.90;3.15;;;;;;;;;;5067666;28;20067;-58
2020/12/10 10:06:14;;;;;;;19.15;3.00;;;;;;;;;;5065288;28;20036;-59
2020/12/10 10:08:41;;;;;;;21.20;3.38;;;;;;;;;;5065424;28;20044;-59
2020/12/10 10:11:07;;;;;;;16.50;3.20;;;;;;;;;;5066540;28;20040;-58
2020/12/10 10:13:38;;;;;;;27.83;3.75;;;;;;;;;;5064829;28;20512;-58
2020/12/10 10:16:08;;;;;;;25.17;3.15;;;;;;;;;;5064002;28;20031;-58
2020/12/10 10:18:35;;;;;;;28.70;3.17;;;;;;;;;;5062362;28;20033;-59
2020/12/10 10:21:04;;;;;;;34.47;4.38;;;;;;;;;;5062298;28;20120;-59
2020/12/10 10:23:31;;;;;;;36.88;4.72;;;;;;;;;;5063827;28;20032;-58
2020/12/10 10:25:57;;;;;;;25.10;2.83;;;;;;;;;;5065990;28;20493;-59
2020/12/10 10:28:24;;;;;;;46.60;4.63;;;;;;;;;;5061716;28;20035;-58
2020/12/10 10:30:50;;;;;;;33.05;3.95;;;;;;;;;;5060672;28;20052;-58
2020/12/10 10:33:22;;;;;;;20.52;2.55;;;;;;;;;;5062383;28;20435;-59
2020/12/10 10:35:48;;;;;;;16.38;2.53;;;;;;;;;;5065270;28;20031;-58
2020/12/10 10:38:18;;;;;;;19.58;2.33;;;;;;;;;;5064830;28;20016;-58
2020/12/10 10:40:44;;;;;;;20.75;2.58;;;;;;;;;;5068146;28;20039;-58
2020/12/10 10:43:10;;;;;;;18.80;2.58;;;;;;;;;;5065532;28;20031;-58
2020/12/10 10:45:37;;;;;;;21.52;2.83;;;;;;;;;;5058006;28;20029;-58
2020/12/10 10:48:03;;;;;;;23.13;2.78;;;;;;;;;;5070165;28;20433;-59
2020/12/10 10:50:29;;;;;;;20.42;2.90;;;;;;;;;;5067454;28;20086;-58
2020/12/10 10:52:57;;;;;;;20.63;2.30;;;;;;;;;;5064821;28;20755;-58
2020/12/10 10:55:29;;;;;;;21.45;3.15;;;;;;;;;;5055778;28;20447;-58
2020/12/10 10:57:57;;;;;;;20.70;2.50;;;;;;;;;;5066536;28;20047;-59
2020/12/10 11:00:24;;;;;;;63.13;6.20;;;;;;;;;;5065392;28;20045;-59
2020/12/10 11:02:55;;;;;;;21.60;2.80;;;;;;;;;;5069492;28;20032;-58
2020/12/10 11:05:25;;;;;;;13.20;1.73;;;;;;;;;;5063421;28;20024;-58
2020/12/10 11:07:51;;;;;;;15.88;1.75;;;;;;;;;;5092192;28;20036;-59
2020/12/10 11:10:22;;;;;;;10.63;1.25;;;;;;;;;;5069911;28;20497;-58
2020/12/10 11:12:48;;;;;;;15.70;2.40;;;;;;;;;;5070277;28;20036;-58
2020/12/10 11:15:14;;;;;;;15.70;2.15;;;;;;;;;;5067960;28;20043;-58
2020/12/10 11:17:40;;;;;;;16.77;2.50;;;;;;;;;;5059325;28;20117;-58
2020/12/10 11:20:07;;;;;;;15.85;1.95;;;;;;;;;;5059983;28;20497;-59
2020/12/10 11:22:38;;;;;;;14.60;1.33;;;;;;;;;;5062823;28;20024;-58
2020/12/10 11:25:05;;;;;;;15.52;1.40;;;;;;;;;;5068007;28;20040;-59
2020/12/10 11:27:33;;;;;;;20.55;2.05;;;;;;;;;;5070983;28;20036;-59
2020/12/10 11:30:19;;;;;;;19.95;2.35;;;;;;;;;;5064257;28;20033;-59
2020/12/10 11:32:45;;;;;;;23.77;3.53;;;;;;;;;;5069405;28;20036;-58
2020/12/10 11:35:11;;;;;;;25.48;3.13;;;;;;;;;;5067520;28;20500;-59
2020/12/10 11:37:40;;;;;;;25.27;3.08;;;;;;;;;;5069432;28;20017;-58
2020/12/10 11:40:10;;;;;;;19.13;2.83;;;;;;;;;;5051346;28;20598;-58
2020/12/10 11:42:37;;;;;;;20.00;2.55;;;;;;;;;;5071665;28;20043;-59
2020/12/10 11:45:04;;;;;;;16.85;2.05;;;;;;;;;;5068147;28;20059;-59
2020/12/10 11:47:32;;;;;;;12.10;1.50;;;;;;;;;;5068578;28;20040;-58
2020/12/10 11:50:20;;;;;;;12.10;1.17;;;;;;;;;;5067489;28;20029;-59
2020/12/10 11:52:47;;;;;;;12.02;1.27;;;;;;;;;;5067302;28;20060;-58
2020/12/10 11:55:33;;;;;;;22.25;2.25;;;;;;;;;;5055587;28;20025;-58
2020/12/10 11:57:59;;;;;;;13.18;1.30;;;;;;;;;;5068652;28;20032;-59
2020/12/10 12:00:25;;;;;;;14.55;1.77;;;;;;;;;;5063263;28;20038;-59
2020/12/10 12:02:51;;;;;;;19.05;2.63;;;;;;;;;;5065646;28;20025;-58
2020/12/10 12:05:19;;;;;;;18.23;2.58;;;;;;;;;;5060754;28;20036;-59
2020/12/10 12:07:47;;;;;;;23.55;2.47;;;;;;;;;;5067128;28;20048;-59
2020/12/10 12:10:15;;;;;;;27.23;2.75;;;;;;;;;;5066625;28;20053;-59
2020/12/10 12:12:45;;;;;;;23.60;2.83;;;;;;;;;;5070006;28;20024;-59
2020/12/10 12:15:12;;;;;;;15.73;2.17;;;;;;;;;;5069390;28;20413;-59
2020/12/10 12:17:44;;;;;;;29.52;3.30;;;;;;;;;;5068075;28;20036;-58
2020/12/10 12:20:11;;;;;;;32.33;3.40;;;;;;;;;;5063954;28;20056;-58
2020/12/10 12:22:37;;;;;;;19.15;2.97;;;;;;;;;;5066736;28;20029;-58
2020/12/10 12:25:04;;;;;;;22.90;2.65;;;;;;;;;;5068063;28;20656;-59
2020/12/10 12:27:51;;;;;;;25.23;2.63;;;;;;;;;;5063233;28;20048;-59
2020/12/10 12:30:17;;;;;;;22.33;3.63;;;;;;;;;;5068701;28;20047;-58
2020/12/10 12:32:43;;;;;;;21.20;2.65;;;;;;;;;;5063880;28;20548;-58
2020/12/10 12:35:09;;;;;;;22.00;2.03;;;;;;;;;;5066410;28;20512;-59
2020/12/10 12:37:37;;;;;;;13.20;2.47;;;;;;;;;;5058749;28;20060;-59
2020/12/10 12:40:06;;;;;;;12.35;1.75;;;;;;;;;;5067691;28;20032;-59
2020/12/10 12:42:32;;;;;;;12.95;1.63;;;;;;;;;;5069037;28;20394;-59
2020/12/10 12:44:58;;;;;;;18.88;1.90;;;;;;;;;;5066226;28;20540;-58
2020/12/10 12:47:25;;;;;;;15.30;1.92;;;;;;;;;;5063652;28;20496;-59
2020/12/10 12:49:52;;;;;;;16.92;1.70;;;;;;;;;;5066560;28;20039;-60
2020/12/10 12:52:18;;;;;;;22.00;2.55;;;;;;;;;;5065447;28;20049;-58
2020/12/10 12:54:45;;;;;;;13.27;1.52;;;;;;;;;;5057029;28;20029;-59
2020/12/10 12:57:11;;;;;;;22.98;2.17;;;;;;;;;;5068595;28;20524;-59
2020/12/10 12:59:37;;;;;;;21.60;2.75;;;;;;;;;;5064829;28;20033;-59
2020/12/10 13:02:03;;;;;;;14.30;1.65;;;;;;;;;;5065456;28;20936;-59
2020/12/10 13:04:29;;;;;;;19.73;2.35;;;;;;;;;;5067423;28;20079;-59
2020/12/10 13:06:56;;;;;;;20.98;3.00;;;;;;;;;;5064795;28;20037;-60
2020/12/10 13:09:22;;;;;;;21.73;2.13;;;;;;;;;;5062619;28;20032;-59
2020/12/10 13:11:48;;;;;;;12.65;1.88;;;;;;;;;;5067566;28;20394;-59
2020/12/10 13:14:14;;;;;;;13.00;2.00;;;;;;;;;;5065529;28;20032;-59
2020/12/10 13:16:46;;;;;;;11.68;1.60;;;;;;;;;;5065606;28;20032;-58
2020/12/10 13:19:15;;;;;;;30.02;3.65;;;;;;;;;;5050772;28;20055;-60
2020/12/10 13:21:41;;;;;;;24.60;2.47;;;;;;;;;;5068640;28;20062;-59
2020/12/10 13:24:07;;;;;;;14.55;2.10;;;;;;;;;;5066461;28;20420;-59
2020/12/10 13:26:34;;;;;;;20.10;2.40;;;;;;;;;;5065651;28;20071;-58
2020/12/10 13:29:01;;;;;;;20.75;2.65;;;;;;;;;;5065379;28;20047;-59
2020/12/10 13:31:27;;;;;;;19.40;2.50;;;;;;;;;;5065169;28;20054;-57
2020/12/10 13:33:59;;;;;;;25.40;3.10;;;;;;;;;;5067048;28;20516;-60
2020/12/10 13:36:29;;;;;;;19.10;2.55;;;;;;;;;;5064110;28;20032;-61
2020/12/10 13:39:16;;;;;;;13.93;1.60;;;;;;;;;;5057832;28;20111;-61
2020/12/10 13:41:43;;;;;;;10.15;2.22;;;;;;;;;;5062630;28;20485;-61
2020/12/10 13:44:09;;;;;;;18.98;2.28;;;;;;;;;;5063777;28;20020;-61
2020/12/10 13:46:37;;;;;;;16.05;2.80;;;;;;;;;;5059115;28;20028;-61
2020/12/10 13:49:03;;;;;;;20.23;2.72;;;;;;;;;;5066443;28;20612;-61
2020/12/10 13:51:31;;;;;;;15.18;1.98;;;;;;;;;;5063251;28;20040;-60
2020/12/10 13:53:59;;;;;;;22.58;2.50;;;;;;;;;;5063471;28;20024;-61
2020/12/10 13:56:28;;;;;;;23.83;3.17;;;;;;;;;;5093761;28;20020;-61
2020/12/10 13:58:54;;;;;;;18.02;2.72;;;;;;;;;;5061835;28;20398;-61
2020/12/10 14:01:20;;;;;;;17.45;2.30;;;;;;;;;;5066519;28;20056;-61
2020/12/10 14:03:46;;;;;;;17.55;2.00;;;;;;;;;;5067923;28;20098;-58
2020/12/10 14:06:20;;;;;;;19.20;2.92;;;;;;;;;;5066489;28;20083;-58
2020/12/10 14:08:47;;;;;;;17.85;2.80;;;;;;;;;;5063540;28;20052;-58
2020/12/10 14:11:13;;;;;;;20.65;3.33;;;;;;;;;;5065843;28;20036;-58
2020/12/10 14:13:40;;;;;;;13.93;1.58;;;;;;;;;;5065538;28;20016;-58
2020/12/10 14:16:21;;;;;;;26.27;3.25;;;;;;;;;;5063363;28;20437;-58
2020/12/10 14:18:51;;;;;;;14.95;2.30;;;;;;;;;;5072063;28;20522;-59
2020/12/10 14:21:21;;;;;;;20.83;3.25;;;;;;;;;;5070990;28;20028;-58
2020/12/10 14:23:47;;;;;;;19.85;2.65;;;;;;;;;;5071241;28;20024;-58
2020/12/10 14:26:15;;;;;;;9.82;2.22;;;;;;;;;;5069165;28;20143;-59
2020/12/10 14:28:42;;;;;;;10.55;2.53;;;;;;;;;;5071187;28;20083;-59
2020/12/10 14:31:08;;;;;;;17.52;1.90;;;;;;;;;;5069743;28;20029;-59
2020/12/10 14:33:41;;;;;;;64.18;5.65;;;;;;;;;;5068953;28;20029;-59
2020/12/10 14:36:07;;;;;;;15.38;2.70;;;;;;;;;;5069826;28;20036;-58
2020/12/10 14:38:37;;;;;;;14.40;1.48;;;;;;;;;;5069509;28;20095;-59
2020/12/10 14:41:04;;;;;;;21.38;2.08;;;;;;;;;;5054205;28;20028;-58
2020/12/10 14:43:30;;;;;;;13.75;2.00;;;;;;;;;;5069337;28;20023;-58
2020/12/10 14:45:57;;;;;;;30.50;3.53;;;;;;;;;;5070960;28;20068;-59
2020/12/10 14:48:23;;;;;;;17.10;2.45;;;;;;;;;;5062853;28;20047;-58
2020/12/10 14:50:49;;;;;;;19.30;2.40;;;;;;;;;;5069084;28;20812;-58
2020/12/10 14:53:15;;;;;;;22.30;2.15;;;;;;;;;;5069043;28;20021;-58
2020/12/10 14:55:41;;;;;;;17.85;2.67;;;;;;;;;;5058204;28;20552;-59
2020/12/10 14:58:08;;;;;;;15.77;2.10;;;;;;;;;;5069512;28;20554;-59
2020/12/10 15:00:34;;;;;;;15.13;2.30;;;;;;;;;;5072211;28;20039;-59
2020/12/10 15:03:24;;;;;;;20.45;2.35;;;;;;;;;;5069798;28;20044;-58
2020/12/10 15:05:52;;;;;;;20.52;2.33;;;;;;;;;;5068769;28;20020;-58
2020/12/10 15:08:18;;;;;;;14.88;2.40;;;;;;;;;;5068680;28;20031;-59
2020/12/10 15:11:06;;;;;;;14.13;2.10;;;;;;;;;;5068606;28;20063;-58
2020/12/10 15:13:32;;;;;;;17.63;2.55;;;;;;;;;;5068452;28;20035;-58
2020/12/10 15:15:58;;;;;;;16.90;2.45;;;;;;;;;;5070151;28;20879;-58
2020/12/10 15:18:24;;;;;;;17.40;2.30;;;;;;;;;;5057379;28;20047;-59
2020/12/10 15:21:10;;;;;;;15.73;2.38;;;;;;;;;;5069375;28;20393;-58
2020/12/10 15:23:36;;;;;;;19.30;2.50;;;;;;;;;;5063871;28;20064;-58
2020/12/10 15:26:02;;;;;;;14.98;2.78;;;;;;;;;;5061317;28;20027;-59
2020/12/10 15:28:29;;;;;;;13.32;3.00;;;;;;;;;;5068906;28;20023;-58
2020/12/10 15:30:55;;;;;;;20.88;2.28;;;;;;;;;;5070750;28;20028;-58
2020/12/10 15:33:24;;;;;;;16.23;2.65;;;;;;;;;;5070235;28;20031;-58
2020/12/10 15:36:13;;;;;;;13.00;1.85;;;;;;;;;;5071558;28;20072;-58
2020/12/10 15:38:39;;;;;;;15.20;2.38;;;;;;;;;;5069807;28;20039;-58
2020/12/10 15:41:06;;;;;;;22.60;2.85;;;;;;;;;;5068202;28;20027;-58
2020/12/10 15:43:33;;;;;;;17.85;2.15;;;;;;;;;;5068384;28;20035;-58
2020/12/10 15:46:05;;;;;;;20.13;2.45;;;;;;;;;;5069329;28;20082;-58
2020/12/10 15:48:32;;;;;;;19.17;1.85;;;;;;;;;;5063516;28;20028;-59
2020/12/10 15:50:58;;;;;;;15.35;2.63;;;;;;;;;;5068449;28;20076;-58
2020/12/10 15:53:25;;;;;;;16.52;2.20;;;;;;;;;;5068132;28;20035;-58
2020/12/10 15:55:52;;;;;;;17.20;2.55;;;;;;;;;;5066239;28;20389;-58
2020/12/10 15:58:20;;;;;;;17.52;2.85;;;;;;;;;;5062746;28;20119;-59
2020/12/10 16:00:48;;;;;;;22.05;4.00;;;;;;;;;;5063759;28;20037;-59
2020/12/10 16:03:34;;;;;;;16.75;3.88;;;;;;;;;;5066695;28;20033;-58
2020/12/10 16:06:16;;;;;;;14.48;2.63;;;;;;;;;;5061822;28;20036;-59
2020/12/10 16:08:43;;;;;;;19.83;2.75;;;;;;;;;;5062570;28;20412;-58
2020/12/10 16:11:09;;;;;;;13.68;2.60;;;;;;;;;;5066229;28;20036;-59
2020/12/10 16:13:35;;;;;;;19.95;3.50;;;;;;;;;;5062423;28;20021;-58
2020/12/10 16:16:03;;;;;;;18.52;2.60;;;;;;;;;;5061163;28;20060;-59
2020/12/10 16:18:29;;;;;;;15.52;1.98;;;;;;;;;;5063456;28;20036;-58
2020/12/10 16:21:00;;;;;;;17.92;3.53;;;;;;;;;;5063131;28;20107;-59
2020/12/10 16:23:26;;;;;;;17.40;2.97;;;;;;;;;;5056667;28;20029;-60
2020/12/10 16:25:52;;;;;;;18.67;3.08;;;;;;;;;;5065540;28;20032;-59
2020/12/10 16:28:18;;;;;;;15.82;2.50;;;;;;;;;;5063479;28;20039;-59
2020/12/10 16:30:46;;;;;;;17.02;2.90;;;;;;;;;;5060999;28;20043;-59
2020/12/10 16:33:12;;;;;;;15.32;2.72;;;;;;;;;;5064691;28;20033;-58
2020/12/10 16:35:38;;;;;;;17.70;3.28;;;;;;;;;;5063107;28;20028;-59
2020/12/10 16:38:04;;;;;;;26.02;3.45;;;;;;;;;;5061675;28;20024;-58
2020/12/10 16:40:31;;;;;;;17.95;2.78;;;;;;;;;;5061495;28;20082;-59
2020/12/10 16:42:57;;;;;;;14.40;2.47;;;;;;;;;;5060997;28;20021;-59
2020/12/10 16:45:23;;;;;;;14.98;3.72;;;;;;;;;;5064244;28;20025;-58
2020/12/10 16:47:50;;;;;;;26.48;4.30;;;;;;;;;;5062634;28;20035;-59
2020/12/10 16:50:16;;;;;;;23.45;4.00;;;;;;;;;;5062312;28;20029;-59
2020/12/10 16:52:43;;;;;;;21.15;4.75;;;;;;;;;;5060603;28;20024;-59
2020/12/10 16:55:09;;;;;;;13.43;4.32;;;;;;;;;;5062840;28;20025;-59
2020/12/10 16:57:36;;;;;;;19.00;3.90;;;;;;;;;;5061818;28;20947;-59
2020/12/10 17:00:03;;;;;;;15.82;3.17;;;;;;;;;;5058622;28;20028;-59
2020/12/10 17:02:29;;;;;;;16.52;3.30;;;;;;;;;;5044861;28;20049;-59
2020/12/10 17:04:55;;;;;;;17.08;4.35;;;;;;;;;;5056048;28;20101;-58
2020/12/10 17:07:21;;;;;;;18.10;4.03;;;;;;;;;;5053112;28;20036;-58
2020/12/10 17:09:48;;;;;;;20.02;3.97;;;;;;;;;;5051046;28;20025;-58
2020/12/10 17:12:14;;;;;;;24.90;6.78;;;;;;;;;;5052330;28;20033;-59
2020/12/10 17:14:40;;;;;;;19.73;5.10;;;;;;;;;;5052277;28;20028;-58
2020/12/10 17:17:06;;;;;;;20.92;5.20;;;;;;;;;;5053688;28;20169;-58
2020/12/10 17:19:32;;;;;;;18.10;5.82;;;;;;;;;;5058090;28;20497;-59
2020/12/10 17:21:59;;;;;;;22.92;6.03;;;;;;;;;;5051566;28;20168;-59
2020/12/10 17:24:25;;;;;;;30.30;8.00;;;;;;;;;;5054199;28;20024;-59
2020/12/10 17:26:51;;;;;;;17.90;5.57;;;;;;;;;;5060383;28;20234;-59
2020/12/10 17:29:18;;;;;;;31.63;10.18;;;;;;;;;;5055019;28;20390;-59
2020/12/10 17:31:44;;;;;;;22.85;8.43;;;;;;;;;;5047647;28;20044;-59
2020/12/10 17:34:10;;;;;;;28.13;8.32;;;;;;;;;;5042729;28;20689;-58
2020/12/10 17:36:36;;;;;;;16.83;5.70;;;;;;;;;;5049283;28;20044;-59
2020/12/10 17:39:02;;;;;;;29.52;6.28;;;;;;;;;;5050430;28;20044;-59
2020/12/10 17:41:28;;;;;;;19.92;6.20;;;;;;;;;;5051208;28;20025;-59
2020/12/10 17:43:55;;;;;;;24.42;5.70;;;;;;;;;;5047445;28;20438;-59
2020/12/10 17:46:21;;;;;;;20.70;6.35;;;;;;;;;;5046409;28;20548;-59
2020/12/10 17:48:47;;;;;;;14.60;5.82;;;;;;;;;;5047236;28;20426;-59
2020/12/10 17:51:15;;;;;;;23.10;6.70;;;;;;;;;;5048797;28;20082;-59
2020/12/10 17:53:41;;;;;;;19.73;6.63;;;;;;;;;;5047395;28;20510;-58
2020/12/10 17:56:08;;;;;;;22.40;12.50;;;;;;;;;;5047816;28;20512;-59
2020/12/10 17:58:34;;;;;;;19.70;8.05;;;;;;;;;;5049643;28;20020;-59
2020/12/10 18:01:02;;;;;;;16.45;6.80;;;;;;;;;;5051431;28;20118;-59
2020/12/10 18:03:29;;;;;;;20.42;5.63;;;;;;;;;;5060956;28;20013;-59
2020/12/10 18:05:55;;;;;;;14.80;6.07;;;;;;;;;;5063692;28;20036;-59
2020/12/10 18:08:21;;;;;;;18.95;6.35;;;;;;;;;;5062783;28;20541;-59
2020/12/10 18:10:48;;;;;;;14.82;6.03;;;;;;;;;;5058126;28;20563;-59
2020/12/10 18:13:14;;;;;;;16.48;4.07;;;;;;;;;;5064621;28;20058;-58
2020/12/10 18:15:40;;;;;;;18.00;5.18;;;;;;;;;;5066622;28;20055;-59
2020/12/10 18:18:07;;;;;;;16.83;4.57;;;;;;;;;;5065723;28;20513;-59
2020/12/10 18:20:33;;;;;;;16.33;4.60;;;;;;;;;;5055800;28;20032;-59
2020/12/10 18:22:59;;;;;;;26.70;5.78;;;;;;;;;;5063247;28;20509;-59
2020/12/10 18:25:25;;;;;;;19.00;4.00;;;;;;;;;;5062429;28;20149;-58
2020/12/10 18:27:51;;;;;;;18.38;4.93;;;;;;;;;;5057453;28;20037;-59
2020/12/10 18:30:18;;;;;;;20.15;4.38;;;;;;;;;;5062800;28;20028;-58
2020/12/10 18:32:44;;;;;;;14.52;3.53;;;;;;;;;;5061563;28;20037;-58
2020/12/10 18:35:10;;;;;;;15.18;3.95;;;;;;;;;;5055179;28;20028;-58
2020/12/10 18:37:36;;;;;;;17.52;4.07;;;;;;;;;;5062180;28;20457;-59
2020/12/10 18:40:04;;;;;;;21.13;3.40;;;;;;;;;;5064648;28;20115;-59
2020/12/10 18:42:30;;;;;;;18.63;3.28;;;;;;;;;;5068329;28;20054;-59
2020/12/10 18:44:56;;;;;;;16.85;4.25;;;;;;;;;;5066021;28;20033;-58
2020/12/10 18:47:22;;;;;;;14.57;3.55;;;;;;;;;;5065778;28;20519;-59
2020/12/10 18:49:49;;;;;;;19.73;3.60;;;;;;;;;;5066049;28;20028;-59
2020/12/10 18:52:15;;;;;;;19.27;3.63;;;;;;;;;;5048268;28;23775;-59
2020/12/10 18:54:42;;;;;;;22.20;4.07;;;;;;;;;;5069470;28;20028;-59
2020/12/10 18:57:09;;;;;;;24.42;3.00;;;;;;;;;;5066404;28;20059;-59
2020/12/10 18:59:35;;;;;;;18.85;3.55;;;;;;;;;;5064919;28;20039;-59
2020/12/10 19:02:09;;;;;;;19.73;3.22;;;;;;;;;;5066036;28;20041;-58
2020/12/10 19:04:35;;;;;;;18.95;3.33;;;;;;;;;;5080074;28;20029;-58
2020/12/10 19:07:01;;;;;;;17.02;2.90;;;;;;;;;;5071117;28;25561;-59
2020/12/10 19:09:27;;;;;;;24.88;3.70;;;;;;;;;;5064321;28;20028;-59
2020/12/10 19:11:55;;;;;;;22.13;3.65;;;;;;;;;;5071910;28;20094;-58
2020/12/10 19:14:22;;;;;;;15.55;2.90;;;;;;;;;;5074625;28;20446;-58
2020/12/10 19:16:48;;;;;;;20.00;3.50;;;;;;;;;;5069921;28;20110;-59
2020/12/10 19:19:14;;;;;;;24.00;3.80;;;;;;;;;;5067530;28;20120;-59
2020/12/10 19:21:40;;;;;;;24.50;3.30;;;;;;;;;;5061096;28;20091;-58
2020/12/10 19:24:06;;;;;;;27.45;3.17;;;;;;;;;;5071479;28;20024;-59
2020/12/10 19:26:32;;;;;;;24.20;4.28;;;;;;;;;;5081086;28;20028;-58
2020/12/10 19:28:58;;;;;;;24.45;4.38;;;;;;;;;;5064801;28;20021;-59
2020/12/10 19:31:25;;;;;;;20.45;4.22;;;;;;;;;;5064235;28;20037;-59
2020/12/10 19:33:51;;;;;;;25.30;4.35;;;;;;;;;;5065383;28;20028;-58
2020/12/10 19:36:17;;;;;;;27.92;4.78;;;;;;;;;;5068743;28;20074;-58
2020/12/10 19:38:43;;;;;;;25.17;4.80;;;;;;;;;;5072299;28;20020;-58
2020/12/10 19:41:13;;;;;;;28.70;4.20;;;;;;;;;;5071816;28;20021;-59
2020/12/10 19:43:39;;;;;;;30.38;5.57;;;;;;;;;;5060429;28;20431;-59
2020/12/10 19:46:06;;;;;;;23.48;4.50;;;;;;;;;;5064265;28;20033;-56
2020/12/10 19:48:33;;;;;;;33.38;5.40;;;;;;;;;;5075230;28;20033;-59
2020/12/10 19:51:02;;;;;;;28.77;5.40;;;;;;;;;;5071418;28;20497;-61
2020/12/10 19:53:28;;;;;;;30.67;4.93;;;;;;;;;;5071695;28;20074;-60
2020/12/10 19:55:55;;;;;;;27.73;5.32;;;;;;;;;;5072067;28;20030;-61
2020/12/10 19:58:21;;;;;;;25.98;4.30;;;;;;;;;;5069147;28;20601;-60
2020/12/10 20:00:48;;;;;;;29.02;4.35;;;;;;;;;;5073277;28;20052;-60
2020/12/10 20:03:14;;;;;;;34.70;5.57;;;;;;;;;;5073387;28;20020;-60
2020/12/10 20:05:41;;;;;;;30.35;5.05;;;;;;;;;;5071330;28;20451;-60
2020/12/10 20:08:07;;;;;;;27.08;3.80;;;;;;;;;;5067410;28;20059;-61
2020/12/10 20:10:33;;;;;;;32.90;4.82;;;;;;;;;;5067977;28;20358;-61
2020/12/10 20:13:00;;;;;;;20.27;3.20;;;;;;;;;;5069590;28;20047;-60
2020/12/10 20:15:26;;;;;;;22.00;3.63;;;;;;;;;;5060230;28;20028;-60
2020/12/10 20:17:52;;;;;;;18.73;3.33;;;;;;;;;;5068700;28;20029;-60
2020/12/10 20:20:18;;;;;;;24.80;4.38;;;;;;;;;;5066913;28;20019;-61
2020/12/10 20:22:46;;;;;;;29.33;3.63;;;;;;;;;;5066986;28;20040;-60
2020/12/10 20:26:00;;;;;;;21.05;3.50;;;;;;;;;;5067329;28;20065;-60
2020/12/10 20:28:01;;;;;;;24.88;4.18;;;;;;;;;;5060291;28;20101;-55
2020/12/10 20:30:27;;;;;;;29.45;5.22;;;;;;;;;;5069163;28;20078;-56
2020/12/10 20:32:53;;;;;;;18.13;3.45;;;;;;;;;;5066914;28;20043;-53
2020/12/10 20:35:19;;;;;;;14.95;2.28;;;;;;;;;;5066935;28;20097;-53
2020/12/10 20:37:47;;;;;;;14.25;2.83;;;;;;;;;;5066816;28;20055;-55
2020/12/10 20:40:13;;;;;;;17.25;2.83;;;;;;;;;;5067049;28;20021;-53
2020/12/10 20:42:39;;;;;;;13.05;2.35;;;;;;;;;;5067979;28;20396;-53